Time;durP1;ratioP1;P1;durP2;ratioP2;P2;SDS_P1;SDS_P2;PMS_P1;PMS_P2;Temp;Humidity;BMP_temperature;BMP_pressure;BME280_temperature;BME280_humidity;BME280_pressure;Samples;Min_cycle;Max_cycle;Signal;HPM_P1;HPM_P2
2022/12/01 00:01:11;;;;;;;29.58;14.55;;;;;;;1.85;100.00;97818.75;5027081;28;20111;-60
2022/12/01 00:03:38;;;;;;;30.83;14.52;;;;;;;1.94;100.00;97814.13;5027966;28;20049;-57
2022/12/01 00:06:09;;;;;;;25.58;13.38;;;;;;;1.93;100.00;97817.81;5027060;28;20055;-57
2022/12/01 00:08:36;;;;;;;26.10;12.95;;;;;;;2.10;100.00;97815.75;5010724;28;20107;-56
2022/12/01 00:11:08;;;;;;;29.25;13.70;;;;;;;2.00;100.00;97815.25;5019328;28;20455;-59
2022/12/01 00:13:35;;;;;;;30.08;16.13;;;;;;;2.00;100.00;97807.22;5027452;28;20064;-60
2022/12/01 00:16:12;;;;;;;28.77;13.65;;;;;;;1.98;100.00;97812.75;5027968;28;20072;-58
2022/12/01 00:18:39;;;;;;;30.70;13.68;;;;;;;1.99;100.00;97816.25;5024730;28;20045;-58
2022/12/01 00:21:15;;;;;;;28.63;14.13;;;;;;;1.86;100.00;97804.38;5013365;28;20060;-58
2022/12/01 00:23:46;;;;;;;28.48;13.27;;;;;;;1.83;100.00;97807.41;5027432;28;20041;-59
2022/12/01 00:26:14;;;;;;;26.33;12.63;;;;;;;1.77;100.00;97805.50;5027854;28;20606;-60
2022/12/01 00:28:41;;;;;;;32.55;14.82;;;;;;;1.69;100.00;97803.72;5026011;28;20107;-59
2022/12/01 00:31:11;;;;;;;29.88;13.95;;;;;;;1.74;100.00;97808.53;5026490;28;20054;-60
2022/12/01 00:33:38;;;;;;;29.45;14.40;;;;;;;1.68;100.00;97805.59;5027509;28;20408;-59
2022/12/01 00:36:06;;;;;;;25.90;11.73;;;;;;;1.70;100.00;97810.75;5027063;28;20046;-59
2022/12/01 00:38:33;;;;;;;30.15;14.00;;;;;;;1.69;100.00;97809.06;5010464;28;20034;-58
2022/12/01 00:41:00;;;;;;;27.27;12.13;;;;;;;1.63;100.00;97809.81;5006889;28;20525;-58
2022/12/01 00:43:26;;;;;;;27.33;12.52;;;;;;;1.63;100.00;97812.47;5006956;28;20121;-59
2022/12/01 00:45:55;;;;;;;23.02;11.90;;;;;;;1.69;100.00;97806.41;5007597;28;20074;-58
2022/12/01 00:48:22;;;;;;;29.10;13.45;;;;;;;1.62;100.00;97808.97;5008420;28;20875;-59
2022/12/01 00:50:52;;;;;;;28.55;13.60;;;;;;;1.66;100.00;97804.94;5026557;28;20068;-60
2022/12/01 00:53:20;;;;;;;;;;;;;;;1.66;100.00;97812.13;5027076;28;20049;-59
2022/12/01 00:55:46;;;;;;;23.45;11.20;;;;;;;1.74;100.00;97806.69;5027012;28;19928;-58
2022/12/01 00:58:13;;;;;;;25.38;12.95;;;;;;;1.72;100.00;97813.22;5026070;28;20052;-60
2022/12/01 01:00:41;;;;;;;26.25;11.82;;;;;;;1.57;100.00;97816.72;5026768;28;20128;-57
2022/12/01 01:03:09;;;;;;;26.88;12.90;;;;;;;1.62;100.00;97818.84;5027431;28;20045;-58
2022/12/01 01:05:38;;;;;;;26.38;12.45;;;;;;;1.56;100.00;97823.06;5026480;28;20064;-59
2022/12/01 01:08:09;;;;;;;25.20;12.35;;;;;;;1.53;100.00;97823.44;5013503;28;20037;-59
2022/12/01 01:10:44;;;;;;;26.80;12.38;;;;;;;1.55;100.00;97822.22;5014292;28;20049;-57
2022/12/01 01:13:13;;;;;;;27.73;12.70;;;;;;;1.63;100.00;97824.00;5026565;28;20608;-55
2022/12/01 01:15:40;;;;;;;26.92;12.07;;;;;;;1.62;100.00;97827.66;5023182;28;20501;-59
2022/12/01 01:18:08;;;;;;;24.42;11.68;;;;;;;1.64;100.00;97824.81;5024147;28;20046;-58
2022/12/01 01:20:35;;;;;;;24.45;11.73;;;;;;;1.67;100.00;97825.25;5026127;28;20463;-60
2022/12/01 01:23:01;;;;;;;23.88;12.00;;;;;;;1.63;100.00;97823.16;5026395;28;20048;-58
2022/12/01 01:25:30;;;;;;;26.75;11.88;;;;;;;1.68;100.00;97829.63;5026674;28;20115;-58
2022/12/01 01:27:56;;;;;;;23.25;11.35;;;;;;;1.66;100.00;97822.81;5026253;28;20507;-59
2022/12/01 01:30:23;;;;;;;22.85;11.30;;;;;;;1.60;99.87;97829.69;5026129;28;20065;-60
2022/12/01 01:32:49;;;;;;;23.80;10.98;;;;;;;1.68;99.73;97831.44;5026378;28;20317;-60
2022/12/01 01:35:16;;;;;;;24.77;12.35;;;;;;;1.68;99.13;97826.94;5025597;28;20504;-58
2022/12/01 01:37:42;;;;;;;26.42;12.02;;;;;;;1.72;100.00;97823.88;5016135;28;20050;-56
2022/12/01 01:40:09;;;;;;;25.60;11.90;;;;;;;1.71;100.00;97828.41;5006389;28;20368;-60
2022/12/01 01:42:36;;;;;;;25.73;12.60;;;;;;;1.69;99.99;97838.44;5006304;28;20042;-59
2022/12/01 01:45:02;;;;;;;22.80;11.13;;;;;;;1.78;98.52;97831.19;5021619;28;20570;-60
2022/12/01 01:47:35;;;;;;;19.92;9.80;;;;;;;1.83;98.37;97831.44;5026322;28;20519;-59
2022/12/01 01:50:08;;;;;;;22.10;10.15;;;;;;;1.78;98.69;97826.69;5027133;28;20069;-60
2022/12/01 01:52:37;;;;;;;23.95;11.38;;;;;;;1.77;99.96;97834.88;5025815;28;20048;-59
2022/12/01 01:55:04;;;;;;;23.65;11.02;;;;;;;1.77;100.00;97837.53;5025974;28;20119;-58
2022/12/01 01:57:33;;;;;;;23.48;11.73;;;;;;;1.79;99.45;97832.81;5025766;28;20045;-59
2022/12/01 02:00:11;;;;;;;22.50;10.68;;;;;;;1.85;99.62;97832.09;5026185;28;20050;-53
2022/12/01 02:02:43;;;;;;;21.75;11.48;;;;;;;1.92;98.29;97833.00;5026277;28;20136;-58
2022/12/01 02:05:23;;;;;;;21.55;10.85;;;;;;;1.89;98.46;97825.38;5025471;28;20076;-58
2022/12/01 02:07:52;;;;;;;21.60;9.80;;;;;;;1.95;97.82;97824.63;5014697;28;20469;-57
2022/12/01 02:10:23;;;;;;;24.23;11.70;;;;;;;1.94;97.32;97824.81;5011393;28;20077;-59
2022/12/01 02:12:52;;;;;;;22.10;11.50;;;;;;;1.88;97.99;97823.72;5026064;28;20037;-58
2022/12/01 02:15:42;;;;;;;21.38;10.70;;;;;;;1.89;97.37;97822.72;5025551;28;20076;-58
2022/12/01 02:18:19;;;;;;;22.17;10.60;;;;;;;1.92;96.63;97825.00;5025581;28;20120;-58
2022/12/01 02:21:28;;;;;;;24.08;11.35;;;;;;;1.64;98.86;97817.66;5024436;28;20116;-59
2022/12/01 02:24:07;;;;;;;22.65;10.00;;;;;;;1.65;98.59;97811.28;5025973;28;20129;-56
2022/12/01 02:26:43;;;;;;;22.20;10.20;;;;;;;1.71;99.05;97814.22;5007789;28;20560;-58
2022/12/01 02:29:31;;;;;;;22.65;10.40;;;;;;;1.80;96.88;97811.28;5002406;28;20417;-57
2022/12/01 02:32:09;;;;;;;20.00;10.32;;;;;;;1.77;97.55;97811.66;5044215;28;20037;-58
2022/12/01 02:34:49;;;;;;;21.35;11.20;;;;;;;1.87;95.99;97807.88;5049292;28;20052;-57
2022/12/01 02:37:38;;;;;;;19.33;9.97;;;;;;;1.95;95.29;97803.28;5036653;28;20100;-59
2022/12/01 02:40:16;;;;;;;22.98;10.48;;;;;;;1.91;95.60;97803.81;5009642;28;20066;-57
2022/12/01 02:42:52;;;;;;;23.65;10.90;;;;;;;1.92;95.59;97802.81;5008716;28;20511;-55
2022/12/01 02:45:27;;;;;;;20.92;10.52;;;;;;;1.98;94.27;97803.94;5009442;28;20132;-57
2022/12/01 02:47:58;;;;;;;22.13;10.32;;;;;;;1.97;93.93;97805.75;5009832;28;20069;-57
2022/12/01 02:50:27;;;;;;;22.73;11.25;;;;;;;1.76;96.35;97798.47;5042498;28;20049;-57
2022/12/01 02:52:54;;;;;;;20.92;10.45;;;;;;;1.64;97.07;97806.97;5029229;28;20046;-59
2022/12/01 02:55:21;;;;;;;16.92;9.82;;;;;;;1.55;98.34;97808.06;5028478;28;20504;-58
2022/12/01 02:57:47;;;;;;;22.10;9.77;;;;;;;1.60;97.43;97803.00;5028933;28;20268;-59
2022/12/01 03:00:15;;;;;;;22.85;11.48;;;;;;;1.63;98.30;97807.16;5029109;28;20452;-58
2022/12/01 03:02:57;;;;;;;23.77;10.80;;;;;;;1.52;97.54;97808.44;5028467;28;20053;-59
2022/12/01 03:05:23;;;;;;;;;;;;;;;1.48;98.32;97810.66;5029546;28;20045;-57
2022/12/01 03:07:56;;;;;;;21.92;10.90;;;;;;;1.52;98.63;97805.75;5016113;28;20424;-59
2022/12/01 03:10:36;;;;;;;21.30;10.60;;;;;;;1.60;97.89;97804.84;5022575;28;20049;-58
2022/12/01 03:13:22;;;;;;;18.33;9.95;;;;;;;1.64;97.45;97812.31;5027526;28;20465;-57
2022/12/01 03:15:52;;;;;;;22.25;9.80;;;;;;;1.67;99.18;97811.91;5028868;28;20451;-60
2022/12/01 03:18:35;;;;;;;18.77;10.23;;;;;;;1.73;97.23;97809.56;5028403;28;20045;-58
2022/12/01 03:21:29;;;;;;;18.98;10.13;;;;;;;1.71;97.05;97806.22;5013523;28;20048;-54
2022/12/01 03:24:06;;;;;;;20.02;9.63;;;;;;;1.72;95.78;97802.53;5009014;28;20522;-56
2022/12/01 03:26:35;;;;;;;20.70;10.48;;;;;;;1.65;96.08;97797.94;5008111;28;20437;-58
2022/12/01 03:29:45;;;;;;;19.60;9.75;;;;;;;1.67;96.29;97808.44;5009053;28;20404;-58
2022/12/01 03:32:27;;;;;;;22.35;10.05;;;;;;;1.53;95.84;97797.56;5007877;28;20120;-60
2022/12/01 03:35:07;;;;;;;24.88;10.23;;;;;;;1.49;96.24;97803.44;5026571;28;20038;-57
2022/12/01 03:37:41;;;;;;;22.75;10.35;;;;;;;1.49;96.29;97803.44;5019053;28;20042;-59
2022/12/01 03:40:13;;;;;;;18.88;9.32;;;;;;;1.47;96.09;97800.97;5008104;28;20740;-58
2022/12/01 03:42:45;;;;;;;18.80;10.05;;;;;;;1.44;96.12;97798.69;5008421;28;20042;-59
2022/12/01 03:45:18;;;;;;;21.65;9.98;;;;;;;1.43;96.25;97799.66;5008176;28;20122;-57
2022/12/01 03:47:45;;;;;;;19.92;9.23;;;;;;;1.43;95.65;97803.19;5008945;28;20092;-58
2022/12/01 03:50:12;;;;;;;18.27;9.45;;;;;;;1.45;95.90;97805.66;5024571;28;20041;-58
2022/12/01 03:52:40;;;;;;;20.85;10.73;;;;;;;1.28;95.71;97803.16;5027972;28;20056;-60
2022/12/01 03:55:26;;;;;;;20.50;10.48;;;;;;;1.25;95.79;97805.38;5027547;28;20421;-57
2022/12/01 03:58:02;;;;;;;20.73;9.55;;;;;;;1.26;95.87;97810.50;5027966;28;20045;-58
2022/12/01 04:00:30;;;;;;;19.45;10.00;;;;;;;1.25;96.11;97813.38;5027944;28;20482;-58
2022/12/01 04:02:58;;;;;;;20.77;9.65;;;;;;;1.25;95.31;97806.19;5027998;28;20049;-57
2022/12/01 04:05:25;;;;;;;19.02;8.70;;;;;;;1.28;96.64;97812.97;5028071;28;20053;-59
2022/12/01 04:07:52;;;;;;;21.05;9.90;;;;;;;1.21;96.29;97804.88;5016075;28;20038;-57
2022/12/01 04:10:19;;;;;;;19.13;9.70;;;;;;;1.21;96.60;97810.22;5012659;28;20048;-58
2022/12/01 04:12:45;;;;;;;20.13;9.27;;;;;;;1.16;96.34;97810.78;5027705;28;20513;-57
2022/12/01 04:15:13;;;;;;;19.45;10.15;;;;;;;1.22;96.34;97803.06;5027830;28;20086;-60
2022/12/01 04:17:42;;;;;;;20.13;9.70;;;;;;;1.15;97.10;97806.44;5028291;28;20073;-59
2022/12/01 04:20:11;;;;;;;24.50;10.68;;;;;;;1.28;96.58;97805.81;5012845;28;20045;-58
2022/12/01 04:22:38;;;;;;;22.33;11.38;;;;;;;1.43;94.95;97807.66;5026412;28;20402;-58
2022/12/01 04:25:05;;;;;;;18.02;9.60;;;;;;;1.47;95.34;97808.97;5026711;28;20041;-59
2022/12/01 04:27:33;;;;;;;19.92;9.73;;;;;;;1.40;96.53;97818.72;5027789;28;20050;-58
2022/12/01 04:29:59;;;;;;;21.05;9.38;;;;;;;1.29;96.52;97812.81;5026271;28;20489;-58
2022/12/01 04:32:26;;;;;;;22.50;10.80;;;;;;;1.26;96.11;97809.69;5026759;28;20516;-60
2022/12/01 04:34:52;;;;;;;20.92;10.40;;;;;;;1.26;96.76;97807.00;5027964;28;20042;-59
2022/12/01 04:37:19;;;;;;;21.80;10.77;;;;;;;1.23;97.03;97808.22;5020225;28;20044;-59
2022/12/01 04:39:45;;;;;;;21.42;10.75;;;;;;;1.25;97.87;97813.38;5007258;28;20080;-58
2022/12/01 04:42:12;;;;;;;23.75;11.18;;;;;;;1.19;97.12;97806.06;5006868;28;20201;-59
2022/12/01 04:44:39;;;;;;;22.52;10.82;;;;;;;1.19;97.80;97811.41;5007549;28;20074;-59
2022/12/01 04:47:05;;;;;;;25.25;11.10;;;;;;;1.16;97.14;97807.25;5013126;28;20042;-57
2022/12/01 04:49:32;;;;;;;21.98;10.88;;;;;;;1.19;98.23;97816.75;5020435;28;20270;-57
2022/12/01 04:51:59;;;;;;;21.00;11.00;;;;;;;1.26;97.11;97815.84;5026025;28;20283;-56
2022/12/01 04:54:25;;;;;;;24.23;10.95;;;;;;;1.32;97.33;97818.81;5026410;28;20049;-59
2022/12/01 04:56:52;;;;;;;22.80;10.63;;;;;;;1.42;96.98;97820.19;5027264;28;20045;-58
2022/12/01 04:59:18;;;;;;;25.10;11.70;;;;;;;1.45;96.55;97820.84;5026832;28;20257;-58
2022/12/01 05:01:46;;;;;;;23.23;11.13;;;;;;;1.31;97.46;97815.28;5025940;28;20120;-57
2022/12/01 05:04:14;;;;;;;23.35;10.98;;;;;;;1.22;97.94;97819.06;5026769;28;20040;-59
2022/12/01 05:06:41;;;;;;;24.30;11.15;;;;;;;1.15;98.90;97822.44;5024113;28;20083;-56
2022/12/01 05:09:11;;;;;;;25.55;11.48;;;;;;;1.23;98.64;97820.72;5005422;28;20046;-57
2022/12/01 05:11:43;;;;;;;23.77;11.20;;;;;;;1.11;99.22;97831.00;5023413;28;20563;-56
2022/12/01 05:14:10;;;;;;;23.35;11.05;;;;;;;1.05;99.54;97827.19;5026358;28;20083;-58
2022/12/01 05:16:36;;;;;;;26.20;12.68;;;;;;;1.02;100.00;97827.53;5027143;28;20055;-55
2022/12/01 05:21:50;;;;;;;23.15;10.63;;;;;;;1.19;99.52;97824.75;5018055;28;20045;-56
2022/12/01 05:24:18;;;;;;;25.05;11.85;;;;;;;1.26;98.23;97825.69;5026427;28;20049;-56
2022/12/01 05:26:45;;;;;;;23.52;10.18;;;;;;;1.31;97.88;97828.63;5027090;28;20554;-59
2022/12/01 05:29:11;;;;;;;26.38;12.27;;;;;;;1.26;98.72;97828.34;5026849;28;20508;-60
2022/12/01 05:31:38;;;;;;;26.63;12.05;;;;;;;1.25;99.18;97824.84;5025588;28;20041;-59
2022/12/01 05:34:06;;;;;;;22.73;11.13;;;;;;;1.16;100.00;97824.09;5026859;28;20107;-58
2022/12/01 05:36:32;;;;;;;22.55;11.43;;;;;;;1.22;99.70;97824.41;5025605;28;20041;-59
2022/12/01 05:38:59;;;;;;;23.02;12.02;;;;;;;1.27;99.85;97824.66;5006688;28;20042;-58
2022/12/01 05:41:25;;;;;;;24.05;11.52;;;;;;;1.36;98.14;97822.78;5006281;28;20124;-60
2022/12/01 05:43:52;;;;;;;24.90;12.13;;;;;;;1.41;98.01;97823.06;5017099;28;20081;-60
2022/12/01 05:46:18;;;;;;;20.52;11.18;;;;;;;1.36;98.72;97831.59;5025901;28;20471;-59
2022/12/01 05:48:46;;;;;;;23.25;11.93;;;;;;;1.22;99.25;97821.72;5026699;28;20037;-60
2022/12/01 05:51:14;;;;;;;25.08;12.13;;;;;;;1.19;100.00;97822.91;5025503;28;20045;-58
2022/12/01 05:53:41;;;;;;;25.85;11.73;;;;;;;1.16;98.87;97818.78;5025697;28;20037;-60
2022/12/01 05:56:08;;;;;;;26.10;11.82;;;;;;;1.19;100.00;97822.06;5026060;28;20045;-60
2022/12/01 05:58:35;;;;;;;28.05;11.98;;;;;;;1.26;99.68;97823.84;5025485;28;20497;-59
2022/12/01 06:01:01;;;;;;;27.23;12.85;;;;;;;1.21;100.00;97817.41;5024975;28;20080;-59
2022/12/01 06:03:28;;;;;;;26.13;11.80;;;;;;;1.24;100.00;97825.03;5026000;28;20122;-60
2022/12/01 06:05:54;;;;;;;26.95;12.05;;;;;;;1.28;99.64;97823.66;5025392;28;20497;-59
2022/12/01 06:08:21;;;;;;;26.05;11.77;;;;;;;1.25;100.00;97824.84;5010267;28;20676;-55
2022/12/01 06:10:47;;;;;;;23.85;11.93;;;;;;;1.24;99.93;97817.03;5014715;28;20042;-56
2022/12/01 06:13:14;;;;;;;29.67;11.82;;;;;;;1.25;100.00;97819.50;5025539;28;20057;-58
2022/12/01 06:15:41;;;;;;;27.02;12.27;;;;;;;1.18;100.00;97826.56;5025962;28;20103;-59
2022/12/01 06:18:07;;;;;;;26.10;12.18;;;;;;;1.19;100.00;97828.25;5025765;28;20120;-60
2022/12/01 06:20:34;;;;;;;25.73;12.15;;;;;;;1.16;100.00;97834.78;5009069;28;20636;-60
2022/12/01 06:23:01;;;;;;;25.77;12.80;;;;;;;1.21;100.00;97828.88;5024966;28;20149;-59
2022/12/01 06:25:28;;;;;;;28.40;13.45;;;;;;;1.18;100.00;97829.25;5025539;28;20495;-60
2022/12/01 06:27:56;;;;;;;27.65;12.95;;;;;;;1.22;100.00;97835.06;5025519;28;20079;-58
2022/12/01 06:30:23;;;;;;;26.95;12.88;;;;;;;1.21;100.00;97838.75;5025057;28;20084;-60
2022/12/01 06:32:50;;;;;;;27.70;13.02;;;;;;;1.28;100.00;97842.34;4986144;28;20108;-56
2022/12/01 06:35:16;;;;;;;28.65;14.15;;;;;;;1.29;100.00;97850.16;5005565;28;20104;-59
2022/12/01 06:37:43;;;;;;;29.30;14.77;;;;;;;1.30;100.00;97843.00;5005583;28;20041;-59
2022/12/01 06:40:10;;;;;;;26.92;13.55;;;;;;;1.34;100.00;97844.28;5005567;28;20073;-58
2022/12/01 06:42:36;;;;;;;28.85;13.07;;;;;;;1.41;100.00;97845.22;5005664;28;20045;-59
2022/12/01 06:45:03;;;;;;;30.85;13.57;;;;;;;1.43;100.00;97851.22;5005673;28;20077;-58
2022/12/01 06:47:30;;;;;;;30.02;13.77;;;;;;;1.40;100.00;97854.22;5003924;28;20045;-60
2022/12/01 06:49:56;;;;;;;30.30;14.10;;;;;;;1.43;100.00;97858.38;5018429;28;20048;-58
2022/12/01 06:52:23;;;;;;;29.15;13.23;;;;;;;1.40;99.90;97854.22;5023173;28;20429;-58
2022/12/01 06:54:49;;;;;;;25.42;11.70;;;;;;;1.42;99.78;97851.38;5024707;28;20046;-59
2022/12/01 06:57:16;;;;;;;32.72;15.05;;;;;;;1.38;100.00;97866.94;5023969;28;20060;-60
2022/12/01 06:59:43;;;;;;;25.40;13.20;;;;;;;1.29;100.00;97854.69;5024741;28;20041;-59
2022/12/01 07:02:10;;;;;;;26.33;13.00;;;;;;;1.23;100.00;97866.06;5024803;28;20448;-59
2022/12/01 07:04:37;;;;;;;23.40;12.27;;;;;;;1.29;100.00;97860.84;5024892;28;20046;-60
2022/12/01 07:07:04;;;;;;;26.45;12.50;;;;;;;1.31;100.00;97866.00;5020226;28;20052;-59
2022/12/01 07:09:31;;;;;;;24.00;12.25;;;;;;;1.34;100.00;97857.63;5005166;28;20529;-60
2022/12/01 07:11:57;;;;;;;27.67;13.48;;;;;;;1.25;100.00;97861.38;5024052;28;20566;-60
2022/12/01 07:14:25;;;;;;;26.27;12.15;;;;;;;1.34;100.00;97865.63;5027803;28;20049;-60
2022/12/01 07:16:52;;;;;;;25.00;11.95;;;;;;;1.45;99.13;97863.53;5028781;28;20118;-59
2022/12/01 07:19:19;;;;;;;26.27;12.98;;;;;;;1.45;98.58;97864.38;5025755;28;20049;-60
2022/12/01 07:21:46;;;;;;;26.13;12.77;;;;;;;1.44;100.00;97870.72;5027868;28;20132;-59
2022/12/01 07:24:12;;;;;;;25.52;12.50;;;;;;;1.37;99.98;97862.59;5028342;28;20041;-57
2022/12/01 07:26:41;;;;;;;27.38;13.65;;;;;;;1.31;100.00;97863.31;5027697;28;20033;-59
2022/12/01 07:29:09;;;;;;;30.58;14.65;;;;;;;1.21;100.00;97873.44;5028711;28;20496;-60
2022/12/01 07:31:37;;;;;;;26.08;13.48;;;;;;;1.20;100.00;97879.75;5028408;28;20703;-57
2022/12/01 07:34:04;;;;;;;27.13;13.77;;;;;;;1.25;100.00;97883.53;5028114;28;20124;-59
2022/12/01 07:36:31;;;;;;;24.88;12.20;;;;;;;1.31;100.00;97882.00;5027174;28;20535;-58
2022/12/01 07:38:57;;;;;;;24.80;11.85;;;;;;;1.30;100.00;97886.50;5008892;28;20484;-57
2022/12/01 07:41:24;;;;;;;23.23;11.48;;;;;;;1.35;100.00;97888.63;5008814;28;20100;-59
2022/12/01 07:43:51;;;;;;;25.40;11.48;;;;;;;1.35;99.93;97879.78;5008661;28;20129;-55
2022/12/01 07:46:23;;;;;;;26.65;12.63;;;;;;;1.36;100.00;97882.28;5008433;28;20317;-59
2022/12/01 07:48:51;;;;;;;24.35;12.55;;;;;;;1.43;100.00;97882.38;5013864;28;20042;-58
2022/12/01 07:51:18;;;;;;;22.45;11.65;;;;;;;1.39;100.00;97889.09;5026940;28;20544;-56
2022/12/01 07:53:48;;;;;;;22.92;11.60;;;;;;;1.31;100.00;97895.34;5028306;28;20045;-58
2022/12/01 07:56:15;;;;;;;24.25;11.75;;;;;;;1.37;100.00;97899.94;5015797;28;20125;-58
2022/12/01 07:58:42;;;;;;;29.17;12.85;;;;;;;1.39;100.00;97897.09;5020293;28;20454;-58
2022/12/01 08:01:14;;;;;;;26.80;13.82;;;;;;;1.35;100.00;97893.97;5021980;28;20041;-59
2022/12/01 08:03:41;;;;;;;25.80;11.38;;;;;;;1.39;100.00;97895.28;5018022;28;20386;-59
2022/12/01 08:06:09;;;;;;;24.35;11.40;;;;;;;1.40;100.00;97888.91;5024206;28;20521;-60
2022/12/01 08:08:37;;;;;;;22.98;10.60;;;;;;;1.39;100.00;97894.44;5010482;28;20091;-59
2022/12/01 08:11:06;;;;;;;25.95;11.70;;;;;;;1.29;100.00;97897.38;5025502;28;20120;-60
2022/12/01 08:13:33;;;;;;;22.63;11.75;;;;;;;1.37;100.00;97891.13;5012377;28;20156;-60
2022/12/01 08:16:04;;;;;;;22.05;11.15;;;;;;;1.43;100.00;97891.25;5021237;28;20147;-57
2022/12/01 08:18:35;;;;;;;21.10;10.65;;;;;;;1.38;100.00;97896.28;5022728;28;20586;-59
2022/12/01 08:21:03;;;;;;;22.40;11.80;;;;;;;1.34;100.00;97892.31;5020451;28;20084;-59
2022/12/01 08:23:29;;;;;;;28.85;11.63;;;;;;;1.41;100.00;97897.78;5009982;28;20471;-59
2022/12/01 08:26:04;;;;;;;21.60;10.82;;;;;;;1.42;100.00;97900.25;5025337;28;20048;-57
2022/12/01 08:28:33;;;;;;;21.67;10.48;;;;;;;1.40;100.00;97901.44;5038989;28;20045;-59
2022/12/01 08:31:13;;;;;;;21.77;11.93;;;;;;;1.50;100.00;97901.19;5015225;28;20153;-55
2022/12/01 08:33:40;;;;;;;23.25;11.30;;;;;;;1.56;98.33;97898.63;5012502;28;20041;-59
2022/12/01 08:36:07;;;;;;;22.95;11.43;;;;;;;1.63;98.15;97906.75;5025714;28;20124;-58
2022/12/01 08:38:33;;;;;;;25.15;11.75;;;;;;;1.61;99.19;97895.41;5021819;28;20045;-58
2022/12/01 08:41:08;;;;;;;24.95;12.30;;;;;;;1.65;98.17;97896.72;5025768;28;20148;-58
2022/12/01 08:43:39;;;;;;;24.88;12.13;;;;;;;1.77;97.59;97901.63;5032303;28;20049;-60
2022/12/01 08:46:31;;;;;;;23.88;11.63;;;;;;;1.52;98.99;97897.31;5038638;28;20115;-60
2022/12/01 08:48:58;;;;;;;24.98;12.88;;;;;;;1.31;100.00;97898.00;5026241;28;20049;-60
2022/12/01 08:51:26;;;;;;;25.00;11.65;;;;;;;1.28;100.00;97898.34;5024465;28;20468;-58
2022/12/01 08:53:54;;;;;;;24.52;11.75;;;;;;;1.29;100.00;97900.84;5024958;28;20053;-59
2022/12/01 08:56:43;;;;;;;28.05;12.23;;;;;;;1.45;100.00;97900.91;5024554;28;20406;-60
2022/12/01 08:59:09;;;;;;;26.00;11.93;;;;;;;1.42;100.00;97899.41;5025244;28;20130;-59
2022/12/01 09:01:50;;;;;;;24.95;11.63;;;;;;;1.43;100.00;97912.59;5024897;28;20503;-61
2022/12/01 09:04:22;;;;;;;26.00;12.40;;;;;;;1.19;100.00;97920.78;5024633;28;20124;-59
2022/12/01 09:06:50;;;;;;;27.95;13.95;;;;;;;1.07;100.00;97920.38;5009636;28;20567;-56
2022/12/01 09:09:20;;;;;;;25.13;11.65;;;;;;;1.09;100.00;97923.66;5006021;28;20077;-55
2022/12/01 09:11:47;;;;;;;24.48;11.30;;;;;;;1.13;100.00;97919.66;5024784;28;20074;-58
2022/12/01 09:14:16;;;;;;;29.33;13.20;;;;;;;1.28;100.00;97915.22;5021040;28;20171;-57
2022/12/01 09:16:44;;;;;;;30.15;14.90;;;;;;;1.32;100.00;97921.00;5024247;28;20420;-57
2022/12/01 09:19:12;;;;;;;28.10;12.75;;;;;;;1.39;100.00;97913.13;5025265;28;20603;-58
2022/12/01 09:21:41;;;;;;;24.40;12.88;;;;;;;1.38;100.00;97920.31;5024027;28;20111;-57
2022/12/01 09:24:13;;;;;;;24.23;12.40;;;;;;;1.46;100.00;97922.06;5024294;28;20056;-58
2022/12/01 09:26:40;;;;;;;;;;;;;;;1.53;99.27;97925.69;5021487;28;20068;-58
2022/12/01 09:29:09;;;;;;;21.95;11.43;;;;;;;1.64;98.25;97916.41;4987778;28;20531;-57
2022/12/01 09:31:36;;;;;;;20.80;11.02;;;;;;;1.77;97.41;97918.44;5017297;28;20057;-58
2022/12/01 09:34:05;;;;;;;24.35;11.70;;;;;;;1.75;97.34;97923.16;5021059;28;20076;-58
2022/12/01 09:36:34;;;;;;;22.65;10.30;;;;;;;1.73;97.39;97917.16;5023696;28;20083;-60
2022/12/01 09:39:01;;;;;;;21.17;9.98;;;;;;;1.69;96.62;97919.38;5019585;28;20045;-55
2022/12/01 09:41:58;;;;;;;26.00;11.63;;;;;;;1.71;97.09;97919.19;5026077;28;20041;-57
2022/12/01 09:44:56;;;;;;;20.95;11.32;;;;;;;1.55;99.04;97920.19;5025456;28;20111;-59
2022/12/01 09:47:30;;;;;;;24.95;12.32;;;;;;;1.42;99.88;97918.94;5021255;28;20053;-58
2022/12/01 09:50:28;;;;;;;24.63;10.77;;;;;;;1.54;97.82;97916.66;5019927;28;20060;-60
2022/12/01 09:53:05;;;;;;;21.25;10.40;;;;;;;1.62;98.24;97915.75;5015690;28;20103;-59
2022/12/01 09:55:33;;;;;;;25.23;11.35;;;;;;;1.64;98.30;97915.56;5014323;28;20037;-59
2022/12/01 09:58:02;;;;;;;22.88;10.90;;;;;;;1.69;98.93;97907.84;5022874;28;20368;-59
2022/12/01 10:00:32;;;;;;;22.88;11.60;;;;;;;1.68;98.73;97900.84;4986522;28;20128;-58
2022/12/01 10:03:23;;;;;;;20.77;11.20;;;;;;;1.64;99.88;97896.88;4991757;28;20513;-58
2022/12/01 10:05:57;;;;;;;18.38;10.30;;;;;;;1.63;100.00;97901.41;4998005;28;20104;-56
2022/12/01 10:08:55;;;;;;;20.98;11.45;;;;;;;1.62;99.99;97899.75;5015711;28;20076;-56
2022/12/01 10:11:38;;;;;;;22.85;11.18;;;;;;;1.56;100.00;97898.63;5025690;28;20037;-55
2022/12/01 10:14:13;;;;;;;28.95;12.10;;;;;;;1.68;99.16;97892.84;5027334;28;20516;-59
2022/12/01 10:17:17;;;;;;;23.40;11.05;;;;;;;1.83;98.68;97890.19;5022111;28;20853;-62
2022/12/01 10:19:52;;;;;;;25.10;12.00;;;;;;;1.78;98.30;97879.25;5004637;28;20061;-56
2022/12/01 10:22:55;;;;;;;24.02;12.23;;;;;;;1.81;98.04;97884.22;5012732;28;20305;-57
2022/12/01 10:25:23;;;;;;;24.27;12.27;;;;;;;1.65;98.56;97874.50;5025485;28;20052;-56
2022/12/01 10:28:23;;;;;;;23.63;12.13;;;;;;;1.85;97.95;97876.66;5026330;28;20072;-57
2022/12/01 10:30:52;;;;;;;22.60;10.77;;;;;;;1.86;97.19;97881.81;5019830;28;20124;-59
2022/12/01 10:33:18;;;;;;;26.60;12.02;;;;;;;1.77;98.18;97870.38;5023380;28;20049;-59
2022/12/01 10:35:45;;;;;;;22.02;11.43;;;;;;;1.71;99.04;97872.97;5023422;28;20511;-58
2022/12/01 10:38:21;;;;;;;21.45;11.15;;;;;;;1.78;98.15;97873.91;5017480;28;20045;-57
2022/12/01 10:40:49;;;;;;;23.50;11.40;;;;;;;1.85;98.11;97877.50;5023320;28;20041;-57
2022/12/01 10:43:16;;;;;;;21.23;11.10;;;;;;;1.77;98.31;97874.91;5022858;28;20500;-59
2022/12/01 10:45:43;;;;;;;21.70;11.75;;;;;;;1.80;98.00;97874.53;5026741;28;20194;-59
2022/12/01 10:48:16;;;;;;;28.65;13.30;;;;;;;1.72;98.90;97869.28;5022528;28;20053;-59
2022/12/01 10:50:55;;;;;;;22.60;10.73;;;;;;;1.90;98.46;97868.94;5026131;28;20087;-56
2022/12/01 10:53:33;;;;;;;20.63;10.40;;;;;;;1.99;96.72;97859.00;5037532;28;20074;-59
2022/12/01 10:56:04;;;;;;;24.73;11.63;;;;;;;1.95;97.24;97854.00;5027111;28;20111;-58
2022/12/01 10:58:32;;;;;;;;;;;;;;;2.08;95.53;97860.56;5027337;28;20042;-58
2022/12/01 11:01:05;;;;;;;20.75;10.13;;;;;;;2.02;96.28;97853.25;5026744;28;19929;-57
2022/12/01 11:03:34;;;;;;;24.42;12.55;;;;;;;1.91;97.14;97850.06;5028061;28;20141;-59
2022/12/01 11:06:04;;;;;;;27.35;12.15;;;;;;;1.79;98.15;97849.69;5024736;28;20489;-59
2022/12/01 11:08:45;;;;;;;25.95;11.43;;;;;;;1.87;97.79;97853.25;5015206;28;20512;-60
2022/12/01 11:11:26;;;;;;;21.80;11.18;;;;;;;1.98;97.76;97847.47;5028100;28;20071;-59
2022/12/01 11:13:54;;;;;;;20.20;10.82;;;;;;;1.91;97.75;97846.53;5028562;28;20038;-56
2022/12/01 11:17:12;;;;;;;23.55;11.50;;;;;;;1.89;98.05;97845.91;5027260;28;20045;-58
2022/12/01 11:19:39;;;;;;;22.83;10.32;;;;;;;2.03;96.88;97846.94;4969384;28;20059;-60
2022/12/01 11:22:23;;;;;;;21.88;11.63;;;;;;;1.92;96.91;97851.69;5021944;28;20053;-60
2022/12/01 11:24:53;;;;;;;21.80;11.30;;;;;;;1.87;97.91;97846.09;5029550;28;20037;-59
2022/12/01 11:27:23;;;;;;;21.15;10.55;;;;;;;1.80;97.72;97851.34;5020715;28;20042;-56
2022/12/01 11:29:55;;;;;;;22.25;11.63;;;;;;;1.88;98.36;97842.41;5020585;28;20045;-57
2022/12/01 11:32:26;;;;;;;21.38;10.93;;;;;;;2.03;97.88;97839.72;5026474;28;20128;-58
2022/12/01 11:35:04;;;;;;;21.13;10.88;;;;;;;2.04;96.43;97835.22;4990880;28;20054;-54
2022/12/01 11:37:37;;;;;;;21.30;10.57;;;;;;;2.19;96.63;97832.53;5034434;28;20353;-57
2022/12/01 11:40:14;;;;;;;23.73;10.98;;;;;;;2.28;95.20;97833.28;5018504;28;20049;-57
2022/12/01 11:42:46;;;;;;;19.95;11.30;;;;;;;2.23;95.57;97836.50;4991916;28;20049;-57
2022/12/01 11:45:35;;;;;;;20.50;11.23;;;;;;;2.07;95.67;97835.66;5025028;28;20049;-57